Time;durP1;ratioP1;P1;durP2;ratioP2;P2;SDS_P1;SDS_P2;PMS_P1;PMS_P2;Temp;Humidity;BMP_temperature;BMP_pressure;BME280_temperature;BME280_humidity;BME280_pressure;Samples;Min_cycle;Max_cycle;Signal;HPM_P1;HPM_P2
2022/03/19 00:00:17;;;;;;;23.20;6.80;;;;;;;;;;5070583;27;96786;-77
2022/03/19 00:02:44;;;;;;;22.35;7.15;;;;;;;;;;5070942;27;97336;-78
2022/03/19 00:05:11;;;;;;;26.35;7.60;;;;;;;;;;5071101;27;95576;-77
2022/03/19 00:07:38;;;;;;;20.40;6.57;;;;;;;;;;5071994;27;96884;-77
2022/03/19 00:10:06;;;;;;;23.17;7.32;;;;;;;;;;5069575;27;97275;-77
2022/03/19 00:12:33;;;;;;;19.90;6.43;;;;;;;;;;5071458;27;95417;-78
2022/03/19 00:14:59;;;;;;;19.63;6.57;;;;;;;;;;5074314;27;96736;-77
2022/03/19 00:17:25;;;;;;;15.38;6.25;;;;;;;;;;5071243;27;95174;-77
2022/03/19 00:19:51;;;;;;;23.73;6.95;;;;;;;;;;5071633;27;96837;-77
2022/03/19 00:22:18;;;;;;;21.33;6.22;;;;;;;;;;5070680;27;97297;-78
2022/03/19 00:24:44;;;;;;;25.15;6.75;;;;;;;;;;5070232;27;95641;-77
2022/03/19 00:27:10;;;;;;;22.13;6.68;;;;;;;;;;5071418;27;96840;-78
2022/03/19 00:29:37;;;;;;;17.83;6.15;;;;;;;;;;5069959;27;97579;-77
2022/03/19 00:32:03;;;;;;;22.10;6.15;;;;;;;;;;5070255;27;96021;-78
2022/03/19 00:34:31;;;;;;;24.73;6.75;;;;;;;;;;5071254;27;97382;-78
2022/03/19 00:37:00;;;;;;;17.42;6.13;;;;;;;;;;5074080;27;97544;-78
2022/03/19 00:39:26;;;;;;;17.95;6.38;;;;;;;;;;5071257;27;96710;-77
2022/03/19 00:41:52;;;;;;;20.08;6.85;;;;;;;;;;5069587;27;97288;-77
2022/03/19 00:44:23;;;;;;;21.45;6.15;;;;;;;;;;5070504;27;95510;-77
2022/03/19 00:46:49;;;;;;;25.38;6.15;;;;;;;;;;5070691;27;96721;-77
2022/03/19 00:49:15;;;;;;;20.98;5.97;;;;;;;;;;5070550;27;97446;-77
2022/03/19 00:51:42;;;;;;;21.25;6.45;;;;;;;;;;5070434;27;95337;-77
2022/03/19 00:54:10;;;;;;;22.20;6.00;;;;;;;;;;5070527;27;96852;-77
2022/03/19 00:56:36;;;;;;;20.23;6.40;;;;;;;;;;5074139;27;97273;-77
2022/03/19 00:59:03;;;;;;;17.75;5.53;;;;;;;;;;5070453;27;96873;-77
2022/03/19 01:01:29;;;;;;;20.42;5.93;;;;;;;;;;5070416;27;97202;-78
2022/03/19 01:03:56;;;;;;;20.35;6.00;;;;;;;;;;5070936;27;95606;-78
2022/03/19 01:06:22;;;;;;;21.67;5.70;;;;;;;;;;5070079;27;96738;-78
2022/03/19 01:08:54;;;;;;;20.27;5.50;;;;;;;;;;5070898;27;97412;-77
2022/03/19 01:11:23;;;;;;;20.27;5.82;;;;;;;;;;5069980;27;95413;-77
2022/03/19 01:13:50;;;;;;;17.75;5.20;;;;;;;;;;5070338;27;96739;-77
2022/03/19 01:16:18;;;;;;;17.23;4.82;;;;;;;;;;5070106;27;97339;-78
2022/03/19 01:18:51;;;;;;;24.98;5.43;;;;;;;;;;5072571;27;95399;-77
2022/03/19 01:21:18;;;;;;;28.27;5.95;;;;;;;;;;5069610;27;97308;-77
2022/03/19 01:23:44;;;;;;;21.23;5.60;;;;;;;;;;5070241;27;95691;-78
2022/03/19 01:26:11;;;;;;;19.85;6.43;;;;;;;;;;5069994;27;96812;-78
2022/03/19 01:28:38;;;;;;;17.65;5.15;;;;;;;;;;5070212;27;97505;-78
2022/03/19 01:31:04;;;;;;;19.80;5.90;;;;;;;;;;5069975;27;96042;-77
2022/03/19 01:33:30;;;;;;;17.40;5.03;;;;;;;;;;5069245;27;96570;-78
2022/03/19 01:35:57;;;;;;;21.58;6.18;;;;;;;;;;5069212;27;96233;-78
2022/03/19 01:38:23;;;;;;;18.15;5.57;;;;;;;;;;5070621;27;95267;-77
2022/03/19 01:40:50;;;;;;;22.67;5.63;;;;;;;;;;5072894;27;96748;-77
2022/03/19 01:43:16;;;;;;;28.83;5.20;;;;;;;;;;5069260;27;95327;-78
2022/03/19 01:45:42;;;;;;;26.30;5.85;;;;;;;;;;5069910;27;95682;-78
2022/03/19 01:48:09;;;;;;;20.13;5.45;;;;;;;;;;5069168;27;97489;-78
2022/03/19 01:50:35;;;;;;;20.40;5.30;;;;;;;;;;5070366;27;95604;-78
2022/03/19 01:53:02;;;;;;;23.90;5.65;;;;;;;;;;5068232;27;96815;-77
2022/03/19 01:55:31;;;;;;;23.92;5.80;;;;;;;;;;5069075;27;97632;-78
2022/03/19 01:58:00;;;;;;;20.08;5.18;;;;;;;;;;5069913;27;95625;-77
2022/03/19 02:00:26;;;;;;;25.45;5.07;;;;;;;;;;5069843;27;96761;-78
2022/03/19 02:02:53;;;;;;;19.80;5.90;;;;;;;;;;5072167;27;97588;-78
2022/03/19 02:05:21;;;;;;;18.58;5.70;;;;;;;;;;5069240;27;97277;-77
2022/03/19 02:07:48;;;;;;;21.75;5.38;;;;;;;;;;5069725;27;96194;-77
2022/03/19 02:10:15;;;;;;;21.23;5.25;;;;;;;;;;5068770;27;95635;-77
2022/03/19 02:12:44;;;;;;;23.90;5.43;;;;;;;;;;5069632;27;97379;-78
2022/03/19 02:15:11;;;;;;;19.75;5.53;;;;;;;;;;5069131;27;97992;-77
2022/03/19 02:17:38;;;;;;;28.52;5.90;;;;;;;;;;5069529;27;95348;-77
2022/03/19 02:20:05;;;;;;;26.30;5.97;;;;;;;;;;5069677;27;96756;-77
2022/03/19 02:22:31;;;;;;;22.00;5.60;;;;;;;;;;5069387;27;97693;-76
2022/03/19 02:27:43;;;;;;;20.15;5.15;;;;;;;;;;5069448;27;97344;-77
2022/03/19 02:30:12;;;;;;;19.25;5.63;;;;;;;;;;5069025;27;95352;-78
2022/03/19 02:32:39;;;;;;;28.38;5.65;;;;;;;;;;5069578;27;96167;-77
2022/03/19 02:35:06;;;;;;;22.27;5.45;;;;;;;;;;5068563;27;97905;-77
2022/03/19 02:37:38;;;;;;;26.95;6.30;;;;;;;;;;5069232;27;95628;-77
2022/03/19 02:40:05;;;;;;;21.83;5.63;;;;;;;;;;5067811;27;97318;-77
2022/03/19 02:42:32;;;;;;;21.95;5.78;;;;;;;;;;5069323;27;97317;-77
2022/03/19 02:45:01;;;;;;;22.20;5.57;;;;;;;;;;5068501;27;95966;-78
2022/03/19 02:47:27;;;;;;;23.52;6.15;;;;;;;;;;5055177;27;97428;-76
2022/03/19 02:49:53;;;;;;;21.15;5.63;;;;;;;;;;5052399;27;95307;-78
2022/03/19 02:52:20;;;;;;;18.30;6.00;;;;;;;;;;5063969;27;96765;-77
2022/03/19 02:54:46;;;;;;;28.88;6.22;;;;;;;;;;5071944;27;97370;-77
2022/03/19 02:57:12;;;;;;;21.90;5.85;;;;;;;;;;5072615;27;95214;-77
2022/03/19 02:59:39;;;;;;;21.63;6.35;;;;;;;;;;5072217;27;96866;-78
2022/03/19 03:02:05;;;;;;;15.90;5.32;;;;;;;;;;5071854;27;97707;-77
2022/03/19 03:04:32;;;;;;;27.98;5.78;;;;;;;;;;5071151;27;95657;-78
2022/03/19 03:07:00;;;;;;;18.55;6.38;;;;;;;;;;5075390;27;96159;-78
2022/03/19 03:09:27;;;;;;;28.00;6.07;;;;;;;;;;5072967;27;96078;-78
2022/03/19 03:11:53;;;;;;;22.58;5.43;;;;;;;;;;5072796;27;96702;-77
2022/03/19 03:14:23;;;;;;;17.77;6.30;;;;;;;;;;5069319;27;97481;-78
2022/03/19 03:16:50;;;;;;;17.95;5.43;;;;;;;;;;5072348;27;95581;-78
2022/03/19 03:19:17;;;;;;;22.20;5.68;;;;;;;;;;5071902;27;96920;-77
2022/03/19 03:21:43;;;;;;;22.38;6.60;;;;;;;;;;5072449;27;97281;-77
2022/03/19 03:24:10;;;;;;;25.08;5.55;;;;;;;;;;5071280;27;95566;-77
2022/03/19 03:26:37;;;;;;;20.13;5.50;;;;;;;;;;5071308;27;97289;-78
2022/03/19 03:29:04;;;;;;;22.13;6.75;;;;;;;;;;5074760;27;96178;-77
2022/03/19 03:31:30;;;;;;;21.00;5.90;;;;;;;;;;5071400;27;96688;-78
2022/03/19 03:33:57;;;;;;;19.30;5.60;;;;;;;;;;5071248;27;97594;-77
2022/03/19 03:36:25;;;;;;;18.83;5.82;;;;;;;;;;5071884;27;95996;-78
2022/03/19 03:38:51;;;;;;;19.27;5.75;;;;;;;;;;5071753;27;96863;-78
2022/03/19 03:41:17;;;;;;;27.85;6.20;;;;;;;;;;5071363;27;97331;-78
2022/03/19 03:43:45;;;;;;;20.25;5.50;;;;;;;;;;5071522;27;95802;-78
2022/03/19 03:46:12;;;;;;;18.25;6.18;;;;;;;;;;5070506;27;96938;-78
2022/03/19 03:48:38;;;;;;;30.98;6.47;;;;;;;;;;5071649;27;97350;-77
2022/03/19 03:51:06;;;;;;;23.00;5.85;;;;;;;;;;5075203;27;96150;-78
2022/03/19 03:53:34;;;;;;;22.92;6.00;;;;;;;;;;5071617;27;100128;-77
2022/03/19 03:56:00;;;;;;;23.13;6.25;;;;;;;;;;5070920;27;95825;-78
2022/03/19 03:58:27;;;;;;;27.73;7.03;;;;;;;;;;5071579;27;96830;-77
2022/03/19 04:00:53;;;;;;;20.75;5.88;;;;;;;;;;5071692;27;97060;-77
2022/03/19 04:03:20;;;;;;;18.67;5.72;;;;;;;;;;5067000;27;95400;-77
2022/03/19 04:05:46;;;;;;;20.08;6.10;;;;;;;;;;5071309;27;96650;-78
2022/03/19 04:08:14;;;;;;;23.15;6.97;;;;;;;;;;5069598;27;97302;-78
2022/03/19 04:10:40;;;;;;;22.17;5.78;;;;;;;;;;5070917;27;95461;-77
2022/03/19 04:13:07;;;;;;;30.65;7.50;;;;;;;;;;5074168;27;96708;-77
2022/03/19 04:15:33;;;;;;;25.45;6.72;;;;;;;;;;5070171;27;95802;-78
2022/03/19 04:18:01;;;;;;;24.90;6.43;;;;;;;;;;5071188;27;96617;-77
2022/03/19 04:20:28;;;;;;;25.95;7.70;;;;;;;;;;5071518;27;96605;-78
2022/03/19 04:22:55;;;;;;;28.15;6.68;;;;;;;;;;5071378;27;95674;-78
2022/03/19 04:25:22;;;;;;;23.35;7.00;;;;;;;;;;5070638;27;96915;-77
2022/03/19 04:27:49;;;;;;;27.10;6.50;;;;;;;;;;5070788;27;97299;-77
2022/03/19 04:30:17;;;;;;;30.35;7.05;;;;;;;;;;5070517;27;95499;-77
2022/03/19 04:32:45;;;;;;;20.52;7.25;;;;;;;;;;5071683;27;96774;-77
2022/03/19 04:38:13;;;;;;;25.60;7.20;;;;;;;;;;5070516;27;97984;-77
2022/03/19 04:40:43;;;;;;;25.98;7.55;;;;;;;;;;5050597;27;97326;-77
2022/03/19 04:43:10;;;;;;;25.30;7.13;;;;;;;;;;5049346;27;95493;-77
2022/03/19 04:45:36;;;;;;;24.23;6.88;;;;;;;;;;5061385;27;96824;-77
2022/03/19 04:48:03;;;;;;;24.42;7.72;;;;;;;;;;5070630;27;97278;-77
2022/03/19 04:50:30;;;;;;;32.58;7.75;;;;;;;;;;5069832;27;95487;-77
2022/03/19 04:52:57;;;;;;;18.30;6.97;;;;;;;;;;5070521;27;96845;-77
2022/03/19 04:55:23;;;;;;;27.60;7.28;;;;;;;;;;5070358;27;98115;-76
2022/03/19 04:57:50;;;;;;;20.55;7.13;;;;;;;;;;5074163;27;95605;-77
2022/03/19 05:00:17;;;;;;;28.67;7.85;;;;;;;;;;5070247;27;97266;-77
2022/03/19 05:02:44;;;;;;;24.23;7.70;;;;;;;;;;5068860;27;95375;-78
2022/03/19 05:05:11;;;;;;;23.45;8.02;;;;;;;;;;5070054;27;96969;-77
2022/03/19 05:07:39;;;;;;;22.52;8.13;;;;;;;;;;5069186;27;97724;-77
2022/03/19 05:12:52;;;;;;;24.95;8.35;;;;;;;;;;5067700;27;96776;-77
2022/03/19 05:15:24;;;;;;;19.23;8.45;;;;;;;;;;5068869;27;97568;-77
2022/03/19 05:17:51;;;;;;;28.15;9.32;;;;;;;;;;5073746;27;95365;-77
2022/03/19 05:20:17;;;;;;;23.08;7.75;;;;;;;;;;5068074;27;96656;-77
2022/03/19 05:22:43;;;;;;;26.45;8.30;;;;;;;;;;5070102;27;95979;-77
2022/03/19 05:25:10;;;;;;;29.65;8.65;;;;;;;;;;5069002;27;96882;-77
2022/03/19 05:27:37;;;;;;;26.80;9.07;;;;;;;;;;5070154;27;97364;-77
2022/03/19 05:30:04;;;;;;;27.20;9.05;;;;;;;;;;5070370;27;96235;-76
2022/03/19 05:32:33;;;;;;;33.75;8.98;;;;;;;;;;5070345;27;97454;-77
2022/03/19 05:35:00;;;;;;;27.80;9.20;;;;;;;;;;5069551;27;97249;-77
2022/03/19 05:37:27;;;;;;;24.50;8.95;;;;;;;;;;5062092;27;95636;-77
2022/03/19 05:39:55;;;;;;;23.08;8.77;;;;;;;;;;5073408;27;96777;-77
2022/03/19 05:42:21;;;;;;;27.58;8.52;;;;;;;;;;5068328;27;95297;-76
2022/03/19 05:44:48;;;;;;;27.63;8.82;;;;;;;;;;5070410;27;97098;-78
2022/03/19 05:47:14;;;;;;;28.15;9.55;;;;;;;;;;5069182;27;97311;-77
2022/03/19 05:49:41;;;;;;;33.53;9.23;;;;;;;;;;5070465;27;95970;-77
2022/03/19 05:52:08;;;;;;;26.95;9.68;;;;;;;;;;5070073;27;97180;-77
2022/03/19 05:54:34;;;;;;;30.05;9.75;;;;;;;;;;5069357;27;97688;-77
2022/03/19 05:57:00;;;;;;;24.77;9.18;;;;;;;;;;5069734;27;95206;-77
2022/03/19 05:59:27;;;;;;;29.13;9.07;;;;;;;;;;5070413;27;96839;-77
2022/03/19 17:55:45;;;;;;;9.88;2.75;;;;;;;;;;5067387;27;1272710;-74
2022/03/19 17:58:12;;;;;;;7.55;2.55;;;;;;;;;;5077367;27;97317;-76
2022/03/19 18:00:39;;;;;;;9.70;2.90;;;;;;;;;;5066542;27;95349;-76
2022/03/19 18:03:05;;;;;;;10.77;2.67;;;;;;;;;;5075746;27;96711;-76
2022/03/19 18:05:32;;;;;;;7.57;2.17;;;;;;;;;;5080240;27;97331;-75
2022/03/19 18:07:58;;;;;;;9.88;2.28;;;;;;;;;;5085155;27;95783;-76
2022/03/19 18:10:29;;;;;;;11.82;2.25;;;;;;;;;;5078736;27;96654;-75
2022/03/19 18:12:55;;;;;;;6.55;2.28;;;;;;;;;;5084917;27;97591;-77
2022/03/19 18:15:22;;;;;;;8.10;3.08;;;;;;;;;;5072511;27;95168;-74
2022/03/19 18:17:50;;;;;;;6.00;2.28;;;;;;;;;;5066514;27;97270;-74
2022/03/19 18:20:17;;;;;;;8.00;2.70;;;;;;;;;;5066097;27;95555;-76
2022/03/19 18:22:49;;;;;;;9.50;2.70;;;;;;;;;;5084566;27;96557;-76
2022/03/19 18:25:15;;;;;;;9.73;2.35;;;;;;;;;;5068203;27;97289;-74
2022/03/19 18:27:43;;;;;;;5.68;2.10;;;;;;;;;;5064654;27;95892;-76
2022/03/19 18:30:10;;;;;;;7.55;2.35;;;;;;;;;;5064809;27;96750;-76
2022/03/19 18:32:38;;;;;;;4.97;2.10;;;;;;;;;;5079685;27;97956;-74
2022/03/19 18:35:04;;;;;;;9.45;2.67;;;;;;;;;;5086482;27;95747;-77
2022/03/19 18:37:31;;;;;;;9.73;2.60;;;;;;;;;;5087992;27;96762;-75
2022/03/19 18:39:57;;;;;;;6.55;2.17;;;;;;;;;;5077683;27;96096;-78
2022/03/19 18:42:24;;;;;;;6.88;2.50;;;;;;;;;;5065804;27;96818;-77
2022/03/19 18:44:51;;;;;;;11.88;3.00;;;;;;;;;;5080510;27;97796;-77
2022/03/19 18:47:17;;;;;;;16.15;2.13;;;;;;;;;;5083858;27;95355;-78
2022/03/19 18:49:51;;;;;;;8.43;2.47;;;;;;;;;;5081946;27;96751;-77
2022/03/19 18:52:17;;;;;;;5.82;2.40;;;;;;;;;;5076235;27;97594;-77
2022/03/19 18:54:44;;;;;;;7.13;2.20;;;;;;;;;;5065471;27;96516;-77
2022/03/19 18:57:10;;;;;;;6.57;2.33;;;;;;;;;;5073794;27;97178;-75
2022/03/19 18:59:38;;;;;;;7.80;2.45;;;;;;;;;;5082785;27;97559;-75
2022/03/19 19:02:05;;;;;;;11.30;2.45;;;;;;;;;;5077682;27;97074;-77
2022/03/19 19:04:32;;;;;;;8.10;2.60;;;;;;;;;;5076203;27;98090;-76
2022/03/19 19:06:58;;;;;;;6.95;2.28;;;;;;;;;;5071988;27;95301;-74
2022/03/19 19:09:24;;;;;;;6.82;2.35;;;;;;;;;;5068783;27;95420;-76
2022/03/19 19:11:51;;;;;;;10.23;2.67;;;;;;;;;;5056018;27;97643;-76
2022/03/19 19:14:17;;;;;;;7.10;2.30;;;;;;;;;;5068484;27;95681;-76
2022/03/19 19:16:43;;;;;;;4.53;2.13;;;;;;;;;;5072305;27;96763;-77
2022/03/19 19:19:12;;;;;;;5.72;2.03;;;;;;;;;;5071804;27;97666;-77
2022/03/19 19:21:38;;;;;;;10.00;2.72;;;;;;;;;;5075694;27;95377;-75
2022/03/19 19:24:05;;;;;;;9.88;2.65;;;;;;;;;;5071408;27;97239;-77
2022/03/19 19:26:33;;;;;;;4.93;2.10;;;;;;;;;;5071894;27;95397;-75
2022/03/19 19:29:02;;;;;;;6.13;2.70;;;;;;;;;;5072070;27;97294;-77
2022/03/19 19:31:30;;;;;;;9.20;2.70;;;;;;;;;;5071529;27;97390;-76
2022/03/19 19:33:57;;;;;;;6.22;2.35;;;;;;;;;;5054836;27;95837;-77
2022/03/19 19:36:27;;;;;;;5.38;2.30;;;;;;;;;;5051695;27;96773;-78
2022/03/19 19:38:54;;;;;;;9.25;2.55;;;;;;;;;;5065245;27;97344;-78
2022/03/19 19:41:20;;;;;;;6.63;2.58;;;;;;;;;;5071919;27;95221;-77
2022/03/19 19:43:47;;;;;;;8.65;2.75;;;;;;;;;;5064876;27;96723;-76
2022/03/19 19:46:13;;;;;;;6.90;2.95;;;;;;;;;;5067460;27;95736;-76
2022/03/19 19:48:40;;;;;;;10.02;2.67;;;;;;;;;;5069827;27;96764;-74
2022/03/19 19:51:07;;;;;;;8.45;2.67;;;;;;;;;;5067079;27;97948;-77
2022/03/19 19:53:34;;;;;;;6.18;2.03;;;;;;;;;;5070311;27;95703;-77
2022/03/19 19:56:00;;;;;;;8.55;2.60;;;;;;;;;;5071507;27;96707;-76
2022/03/19 19:58:27;;;;;;;5.72;2.28;;;;;;;;;;5059978;27;97347;-74
2022/03/19 20:00:54;;;;;;;17.02;2.70;;;;;;;;;;5067433;27;95328;-74
2022/03/19 20:03:20;;;;;;;12.05;2.33;;;;;;;;;;5071720;27;96850;-74
2022/03/19 20:05:56;;;;;;;8.63;2.30;;;;;;;;;;5064716;27;95756;-75
2022/03/19 20:08:23;;;;;;;8.57;2.80;;;;;;;;;;5071655;27;96805;-75
2022/03/19 20:10:49;;;;;;;5.03;2.17;;;;;;;;;;5071005;27;97568;-75
2022/03/19 20:13:16;;;;;;;5.90;2.03;;;;;;;;;;5071214;27;95603;-74
2022/03/19 20:15:43;;;;;;;5.72;2.15;;;;;;;;;;5070661;27;96724;-74
2022/03/19 20:18:09;;;;;;;6.15;2.10;;;;;;;;;;5069845;27;97132;-77
2022/03/19 20:20:36;;;;;;;5.28;1.80;;;;;;;;;;5071498;27;95540;-76
2022/03/19 20:23:19;;;;;;;10.05;2.08;;;;;;;;;;5071741;27;96740;-76
2022/03/19 20:25:46;;;;;;;8.90;3.50;;;;;;;;;;5074266;27;97423;-74
2022/03/19 20:28:13;;;;;;;6.20;2.30;;;;;;;;;;5050106;27;96124;-76
2022/03/19 20:30:39;;;;;;;5.95;3.70;;;;;;;;;;5050904;27;97545;-76
2022/03/19 20:33:10;;;;;;;10.50;3.72;;;;;;;;;;5050861;27;95412;-75
2022/03/19 20:35:37;;;;;;;10.60;3.10;;;;;;;;;;5050872;27;95969;-76
2022/03/19 20:38:04;;;;;;;7.30;2.67;;;;;;;;;;5051190;27;97321;-77
2022/03/19 20:40:30;;;;;;;9.27;3.53;;;;;;;;;;5050571;27;95721;-77
2022/03/19 20:42:57;;;;;;;8.32;2.90;;;;;;;;;;5070256;27;97071;-77
2022/03/19 20:45:26;;;;;;;12.30;3.03;;;;;;;;;;5070964;27;97170;-77
2022/03/19 20:47:52;;;;;;;5.43;2.00;;;;;;;;;;5074448;27;95237;-76
2022/03/19 20:50:28;;;;;;;7.00;2.50;;;;;;;;;;5070833;27;97374;-75
2022/03/19 20:52:55;;;;;;;4.65;1.95;;;;;;;;;;5071105;27;96616;-76
2022/03/19 20:55:22;;;;;;;4.53;2.10;;;;;;;;;;5069853;27;96729;-77
2022/03/19 20:57:50;;;;;;;4.40;2.45;;;;;;;;;;5070934;27;97335;-76
2022/03/19 21:00:18;;;;;;;6.55;2.00;;;;;;;;;;5071216;27;95264;-77
2022/03/19 21:02:45;;;;;;;4.60;1.80;;;;;;;;;;5062906;27;96660;-77
2022/03/19 21:05:12;;;;;;;4.65;1.90;;;;;;;;;;5049570;27;97712;-77
2022/03/19 21:07:40;;;;;;;8.43;2.30;;;;;;;;;;5050652;27;95211;-78
2022/03/19 21:10:08;;;;;;;5.13;1.98;;;;;;;;;;5052858;27;97340;-77
2022/03/19 21:12:39;;;;;;;4.88;1.92;;;;;;;;;;5050620;27;95620;-77
2022/03/19 21:15:11;;;;;;;8.27;3.20;;;;;;;;;;5050434;27;96913;-77
2022/03/19 21:17:38;;;;;;;9.80;4.60;;;;;;;;;;5049743;27;97798;-77
2022/03/19 21:20:05;;;;;;;7.20;2.40;;;;;;;;;;5049869;27;95173;-77
2022/03/19 21:22:31;;;;;;;7.97;2.65;;;;;;;;;;5050084;27;96646;-77
2022/03/19 21:24:58;;;;;;;10.07;3.10;;;;;;;;;;5049936;27;97519;-77
2022/03/19 21:27:25;;;;;;;5.95;2.55;;;;;;;;;;5052209;27;95821;-76
2022/03/19 21:29:51;;;;;;;7.45;2.42;;;;;;;;;;5070067;27;96763;-76
2022/03/19 21:32:17;;;;;;;9.35;2.95;;;;;;;;;;5072975;27;96823;-78
2022/03/19 21:34:44;;;;;;;12.15;2.92;;;;;;;;;;5068036;27;96825;-78
2022/03/19 21:37:10;;;;;;;6.43;2.53;;;;;;;;;;5069553;27;97504;-74
2022/03/19 21:42:22;;;;;;;5.00;1.80;;;;;;;;;;5070109;27;96750;-74
2022/03/19 21:44:48;;;;;;;6.15;1.98;;;;;;;;;;5069776;27;97294;-75
2022/03/19 21:47:14;;;;;;;7.57;2.67;;;;;;;;;;5069669;27;95579;-77
2022/03/19 21:49:41;;;;;;;10.55;2.40;;;;;;;;;;5070411;27;96973;-75
2022/03/19 21:52:07;;;;;;;13.70;6.55;;;;;;;;;;5068843;27;96425;-77
2022/03/19 21:54:34;;;;;;;8.30;3.15;;;;;;;;;;5072935;27;95752;-77
2022/03/19 21:57:00;;;;;;;5.05;2.53;;;;;;;;;;5069905;27;97330;-77
2022/03/19 21:59:26;;;;;;;8.35;3.33;;;;;;;;;;5057903;27;95377;-76
2022/03/19 22:01:52;;;;;;;7.50;2.40;;;;;;;;;;5049323;27;95704;-76
2022/03/19 22:04:20;;;;;;;10.90;3.05;;;;;;;;;;5048458;27;97326;-75
2022/03/19 22:06:47;;;;;;;9.82;2.30;;;;;;;;;;5048946;27;95199;-75
2022/03/19 22:09:13;;;;;;;4.90;2.40;;;;;;;;;;5049057;27;96775;-75
2022/03/19 22:11:40;;;;;;;6.13;2.17;;;;;;;;;;5048404;27;97414;-78
2022/03/19 22:14:06;;;;;;;6.68;2.55;;;;;;;;;;5034006;27;95468;-75
2022/03/19 22:16:51;;;;;;;9.93;3.10;;;;;;;;;;5048749;27;97247;-75
2022/03/19 22:22:03;;;;;;;9.45;3.20;;;;;;;;;;5048575;27;97512;-76
2022/03/19 22:24:29;;;;;;;6.60;2.45;;;;;;;;;;5048626;27;97404;-74
2022/03/19 22:26:56;;;;;;;7.90;2.70;;;;;;;;;;5048657;27;95217;-74
2022/03/19 22:29:23;;;;;;;9.13;2.45;;;;;;;;;;5048752;27;96835;-74
2022/03/19 22:31:51;;;;;;;9.82;3.10;;;;;;;;;;5048487;27;96373;-74
2022/03/19 22:34:18;;;;;;;7.45;3.30;;;;;;;;;;5048071;27;95465;-73
2022/03/19 22:36:45;;;;;;;6.22;2.83;;;;;;;;;;5051781;27;96818;-74
2022/03/19 22:39:11;;;;;;;5.70;2.67;;;;;;;;;;5048677;27;95316;-74
2022/03/19 22:41:37;;;;;;;6.85;2.90;;;;;;;;;;5050686;27;97027;-74
2022/03/19 22:44:04;;;;;;;6.80;2.60;;;;;;;;;;5064025;27;97375;-74
2022/03/19 22:46:31;;;;;;;10.93;2.80;;;;;;;;;;5052298;27;95365;-75
2022/03/19 22:48:57;;;;;;;6.88;2.45;;;;;;;;;;5061003;27;96729;-75
2022/03/19 22:51:24;;;;;;;6.90;2.33;;;;;;;;;;5072499;27;97448;-74
2022/03/19 22:53:50;;;;;;;7.38;2.70;;;;;;;;;;5072223;27;95431;-75
2022/03/19 22:56:16;;;;;;;8.13;2.85;;;;;;;;;;5072271;27;96817;-74
2022/03/19 22:58:43;;;;;;;7.95;3.17;;;;;;;;;;5075488;27;97327;-75
2022/03/19 23:01:09;;;;;;;8.65;3.40;;;;;;;;;;5071802;27;96854;-75
2022/03/19 23:03:36;;;;;;;10.65;3.90;;;;;;;;;;5072129;27;97564;-73
2022/03/19 23:06:04;;;;;;;11.77;3.33;;;;;;;;;;5071590;27;95497;-74
2022/03/19 23:08:30;;;;;;;7.50;3.08;;;;;;;;;;5071610;27;95992;-75
2022/03/19 23:13:46;;;;;;;6.45;2.60;;;;;;;;;;5072391;27;95578;-76
2022/03/19 23:16:12;;;;;;;7.93;2.97;;;;;;;;;;5071246;27;97051;-75
2022/03/19 23:18:39;;;;;;;5.38;2.30;;;;;;;;;;5072094;27;97542;-75
2022/03/19 23:21:05;;;;;;;8.18;2.83;;;;;;;;;;5055879;27;95618;-74
2022/03/19 23:23:32;;;;;;;6.05;2.67;;;;;;;;;;5051124;27;97243;-74
2022/03/19 23:25:59;;;;;;;6.22;2.40;;;;;;;;;;5050616;27;95467;-76
2022/03/19 23:28:25;;;;;;;7.43;3.03;;;;;;;;;;5051730;27;95559;-76
2022/03/19 23:30:52;;;;;;;10.82;3.38;;;;;;;;;;5050740;27;96096;-77
2022/03/19 23:33:19;;;;;;;6.55;2.63;;;;;;;;;;5051747;27;96373;-75
2022/03/19 23:35:46;;;;;;;7.70;3.33;;;;;;;;;;5070757;27;97209;-76
2022/03/19 23:38:13;;;;;;;12.50;3.00;;;;;;;;;;5071047;27;97257;-78
2022/03/19 23:40:40;;;;;;;9.55;2.80;;;;;;;;;;5071705;27;95471;-78
2022/03/19 23:43:07;;;;;;;5.53;2.63;;;;;;;;;;5074594;27;96715;-78
2022/03/19 23:45:33;;;;;;;5.78;2.75;;;;;;;;;;5071805;27;96565;-76
2022/03/19 23:48:00;;;;;;;9.48;3.60;;;;;;;;;;5071309;27;96774;-77
2022/03/19 23:50:26;;;;;;;7.63;3.30;;;;;;;;;;5051416;27;97669;-76
2022/03/19 23:52:52;;;;;;;6.07;2.83;;;;;;;;;;5051197;27;95345;-75
2022/03/19 23:55:19;;;;;;;7.43;3.33;;;;;;;;;;5049992;27;97592;-77
2022/03/19 23:57:45;;;;;;;9.60;3.22;;;;;;;;;;5050415;27;97611;-76
